createdAt,value
2022-10-05T00:00:48.930Z,76.72
2022-10-05T00:05:50.627Z,76.91
2022-10-05T00:10:52.562Z,77.08
2022-10-05T00:16:19.244Z,77.34
2022-10-05T00:21:23.982Z,77.27
2022-10-05T00:26:31.539Z,77.47
2022-10-05T00:31:35.904Z,77.63
2022-10-05T00:36:39.370Z,77.74
2022-10-05T00:42:12.728Z,77.85
2022-10-05T00:47:31.994Z,77.96
2022-10-05T00:52:51.991Z,78.06
2022-10-05T00:58:03.480Z,78.14
2022-10-05T01:03:26.280Z,78.59
2022-10-05T01:08:58.980Z,78.42
2022-10-05T01:14:25.724Z,78.35
2022-10-05T01:19:46.111Z,78.64
2022-10-05T01:25:07.400Z,78.61
2022-10-05T01:30:14.070Z,78.76
2022-10-05T01:35:15.869Z,78.64
2022-10-05T01:40:45.915Z,78.96
2022-10-05T01:46:23.387Z,79.02
2022-10-05T01:51:53.364Z,79.09
2022-10-05T01:57:05.048Z,79.26
2022-10-05T02:02:12.341Z,79.44
2022-10-05T02:07:29.044Z,79.49
2022-10-05T02:12:36.491Z,79.64
2022-10-05T02:17:46.385Z,79.54
2022-10-05T02:22:53.465Z,79.66
2022-10-05T02:28:04.567Z,80.11
2022-10-05T02:33:28.690Z,80.25
2022-10-05T02:38:57.525Z,80.18
2022-10-05T02:44:17.498Z,80.60
2022-10-05T02:49:31.153Z,80.76
2022-10-05T02:55:09.582Z,80.89
2022-10-05T03:00:29.901Z,80.98
2022-10-05T03:05:35.745Z,81.13
2022-10-05T03:10:56.788Z,81.10
2022-10-05T03:16:32.718Z,81.26
2022-10-05T03:22:16.895Z,81.39
2022-10-05T03:27:44.792Z,81.51
2022-10-05T03:32:55.202Z,81.62
2022-10-05T03:37:57.211Z,81.69
2022-10-05T03:43:18.578Z,81.90
2022-10-05T03:48:54.795Z,82.01
2022-10-05T03:54:32.431Z,82.22
2022-10-05T04:00:03.395Z,82.33
2022-10-05T04:05:21.760Z,82.35
2022-10-05T04:10:25.994Z,82.64
2022-10-05T04:15:38.035Z,83.03
2022-10-05T04:21:00.908Z,83.27
2022-10-05T04:26:09.455Z,83.60
2022-10-05T04:31:17.206Z,83.72
2022-10-05T04:36:39.763Z,84.04
2022-10-05T04:42:09.443Z,84.40
2022-10-05T04:47:15.020Z,84.66
2022-10-05T04:52:35.770Z,84.59
2022-10-05T04:57:49.121Z,85.18
2022-10-05T05:03:27.041Z,85.24
2022-10-05T05:08:44.693Z,85.56
2022-10-05T05:14:01.404Z,85.70
2022-10-05T05:19:25.782Z,85.86
2022-10-05T05:24:30.382Z,86.03
2022-10-05T05:29:42.723Z,86.34
2022-10-05T05:35:27.243Z,86.41
2022-10-05T05:40:36.171Z,86.44
2022-10-05T05:45:41.787Z,86.39
2022-10-05T05:51:12.051Z,86.49
2022-10-05T05:56:37.234Z,86.66
2022-10-05T06:01:45.136Z,86.45
2022-10-05T06:06:52.207Z,86.30
2022-10-05T06:12:02.101Z,86.23
2022-10-05T06:17:12.178Z,86.17
2022-10-05T06:22:30.536Z,86.21
2022-10-05T06:27:58.076Z,86.05
2022-10-05T06:33:24.951Z,85.96
2022-10-05T06:38:56.422Z,85.91
2022-10-05T06:44:09.148Z,85.67
2022-10-05T06:50:07.578Z,85.91
2022-10-05T06:55:47.068Z,86.10
2022-10-05T07:01:10.512Z,85.85
2022-10-05T07:06:25.325Z,85.88
2022-10-05T07:11:52.743Z,85.80
2022-10-05T07:17:23.025Z,85.83
2022-10-05T07:22:54.097Z,86.13
2022-10-05T07:28:13.435Z,86.10
2022-10-05T07:33:26.292Z,86.12
2022-10-05T07:39:02.335Z,86.00
2022-10-05T07:44:27.147Z,85.79
2022-10-05T07:49:52.980Z,85.42
2022-10-05T07:55:00.765Z,85.02
2022-10-05T08:00:10.680Z,84.60
2022-10-05T08:05:23.260Z,84.16
2022-10-05T08:10:49.180Z,83.90
2022-10-05T08:16:02.122Z,83.92
2022-10-05T08:21:11.816Z,83.61
2022-10-05T08:26:13.245Z,83.46
2022-10-05T08:31:24.523Z,83.23
2022-10-05T08:37:03.122Z,83.34
2022-10-05T08:42:42.439Z,83.05
2022-10-05T08:48:16.489Z,82.86
2022-10-05T08:53:26.036Z,82.62
2022-10-05T08:58:59.790Z,82.40
2022-10-05T09:04:28.198Z,82.10
2022-10-05T09:10:01.831Z,81.68
2022-10-05T09:15:26.432Z,81.73
2022-10-05T09:20:53.823Z,81.53
2022-10-05T09:25:58.918Z,81.63
2022-10-05T09:31:21.914Z,81.13
2022-10-05T09:36:48.047Z,80.55
2022-10-05T09:42:24.196Z,79.91
2022-10-05T09:47:28.500Z,79.56
2022-10-05T09:52:44.789Z,78.99
2022-10-05T09:58:14.718Z,78.22
2022-10-05T10:08:47.334Z,77.09
2022-10-05T10:14:09.575Z,76.97
2022-10-05T10:19:30.108Z,76.39
2022-10-05T10:24:51.208Z,76.00
2022-10-05T10:30:08.597Z,75.62
2022-10-05T10:35:40.924Z,75.29
2022-10-05T10:41:19.660Z,75.23
2022-10-05T10:47:08.411Z,75.02
2022-10-05T10:52:20.306Z,74.78
2022-10-05T10:58:03.589Z,74.37
2022-10-05T11:03:34.070Z,74.17
2022-10-05T11:08:50.868Z,73.83
2022-10-05T11:14:21.186Z,73.09
2022-10-05T11:20:04.081Z,73.24
2022-10-05T11:25:34.089Z,72.79
2022-10-05T11:31:09.768Z,72.46
2022-10-05T11:36:14.070Z,72.08
2022-10-05T11:41:36.962Z,71.73
2022-10-05T11:46:51.650Z,71.91
2022-10-05T11:52:19.719Z,71.91
2022-10-05T11:57:33.657Z,71.86
2022-10-05T12:03:01.847Z,71.68
2022-10-05T12:08:15.463Z,71.62
2022-10-05T12:13:34.623Z,71.24
2022-10-05T12:18:39.510Z,71.16
2022-10-05T12:23:56.810Z,70.57
2022-10-05T12:29:25.908Z,70.74
2022-10-05T12:34:47.247Z,70.47
2022-10-05T12:39:58.956Z,69.81
2022-10-05T12:45:00.463Z,69.31
2022-10-05T12:50:43.015Z,69.61
2022-10-05T12:55:56.358Z,69.53
2022-10-05T13:01:02.972Z,69.66
2022-10-05T13:06:28.796Z,69.37
2022-10-05T13:11:47.865Z,69.50
2022-10-05T13:17:07.474Z,69.44
2022-10-05T13:22:33.187Z,69.36
2022-10-05T13:27:40.032Z,69.65
2022-10-05T13:33:06.432Z,70.05
2022-10-05T13:38:24.588Z,69.50
2022-10-05T13:43:51.591Z,69.87
2022-10-05T13:49:18.869Z,70.05
2022-10-05T13:54:48.261Z,70.52
2022-10-05T14:00:07.909Z,70.51
2022-10-05T14:05:20.806Z,70.57
2022-10-05T14:10:38.638Z,70.08
2022-10-05T14:15:50.131Z,70.50
2022-10-05T14:21:25.783Z,70.19
2022-10-05T14:26:34.760Z,70.49
2022-10-05T15:32:49.794Z,70.77
2022-10-05T15:38:08.855Z,71.06
2022-10-05T15:43:16.275Z,71.02
2022-10-05T15:48:47.270Z,70.82
2022-10-05T15:54:31.292Z,71.46
2022-10-05T16:00:07.921Z,71.45
2022-10-05T16:05:47.120Z,71.42
2022-10-05T16:11:03.955Z,71.69
2022-10-05T16:16:43.086Z,72.04
2022-10-05T16:22:14.058Z,72.24
2022-10-05T16:27:41.314Z,72.54
2022-10-05T16:32:55.637Z,72.64
2022-10-05T16:38:16.111Z,72.72
2022-10-05T16:43:26.446Z,73.31
2022-10-05T16:48:44.642Z,73.47
2022-10-05T16:54:04.971Z,73.64
2022-10-05T16:59:25.414Z,73.71
2022-10-05T17:04:40.046Z,73.72
2022-10-05T17:10:07.723Z,73.95
2022-10-05T17:15:32.335Z,74.26
2022-10-05T17:20:47.023Z,74.62
2022-10-05T17:26:08.005Z,74.46
2022-10-05T17:31:17.209Z,74.67
2022-10-05T17:36:19.034Z,75.03
2022-10-05T17:41:26.369Z,75.03
2022-10-05T17:46:39.365Z,75.10
2022-10-05T17:51:59.498Z,74.87
2022-10-05T17:57:04.503Z,75.25
2022-10-05T18:02:43.787Z,75.31
2022-10-05T18:07:50.794Z,75.39
2022-10-05T18:13:01.753Z,75.47
2022-10-05T18:18:45.964Z,76.05
2022-10-05T18:24:04.335Z,75.97
2022-10-05T18:29:44.133Z,76.20
2022-10-05T18:35:02.337Z,75.94
2022-10-05T18:40:43.651Z,76.04
2022-10-05T18:46:19.740Z,75.23
2022-10-05T18:51:52.778Z,74.73
2022-10-05T18:56:54.767Z,74.54
2022-10-05T19:02:20.916Z,73.86
2022-10-05T19:07:37.639Z,73.65
2022-10-05T19:13:02.330Z,73.08
2022-10-05T19:18:19.322Z,72.70
2022-10-05T19:23:50.291Z,72.29
2022-10-05T19:29:36.535Z,71.88
2022-10-05T19:34:42.516Z,71.60
2022-10-05T19:40:08.859Z,71.56
2022-10-05T19:45:27.942Z,71.60
2022-10-05T19:50:33.542Z,71.80
2022-10-05T19:55:47.053Z,71.51
2022-10-05T20:00:55.482Z,71.53
2022-10-05T20:06:05.516Z,71.48
2022-10-05T20:11:14.343Z,71.72
2022-10-05T20:16:35.102Z,71.86
2022-10-05T20:21:50.265Z,71.95
2022-10-05T20:27:16.231Z,71.87
2022-10-05T20:32:18.199Z,72.08
2022-10-05T20:37:20.131Z,72.21
2022-10-05T20:42:23.804Z,72.55
2022-10-05T20:47:26.237Z,72.74
2022-10-05T20:52:27.811Z,72.75
2022-10-05T20:57:29.458Z,72.92
2022-10-05T21:02:31.202Z,73.18
2022-10-05T21:07:34.219Z,73.39
2022-10-05T21:12:35.905Z,73.32
2022-10-05T21:17:41.657Z,73.48
2022-10-05T21:22:43.244Z,73.59
2022-10-05T21:27:46.308Z,73.41
2022-10-05T21:32:47.872Z,73.95
2022-10-05T21:37:49.514Z,73.89
2022-10-05T21:42:51.081Z,75.64
2022-10-05T21:47:52.771Z,77.90
2022-10-05T21:52:54.665Z,80.49
2022-10-05T21:57:57.026Z,82.54
2022-10-05T22:02:58.759Z,84.01
2022-10-05T22:08:00.620Z,85.46
2022-10-05T22:13:03.812Z,86.39
2022-10-05T22:18:18.806Z,87.39
2022-10-05T22:23:28.835Z,88.28
2022-10-05T22:28:33.975Z,88.88
2022-10-05T22:38:55.284Z,89.82
2022-10-05T22:43:56.857Z,89.99
2022-10-05T22:48:58.640Z,89.98
2022-10-05T22:54:00.198Z,89.83
2022-10-05T22:59:01.796Z,88.65
2022-10-05T23:04:04.444Z,88.14
2022-10-05T23:09:06.094Z,87.48
2022-10-05T23:14:07.602Z,86.69
2022-10-05T23:19:09.609Z,85.25
2022-10-05T23:24:11.281Z,83.97
2022-10-05T23:29:12.913Z,83.96
2022-10-05T23:34:14.498Z,84.32
2022-10-05T23:39:16.178Z,84.94
2022-10-05T23:44:17.920Z,85.81
2022-10-05T23:49:19.633Z,86.20
2022-10-05T23:54:21.170Z,87.06
2022-10-05T23:59:22.816Z,87.70
